createdAt,value
2023-03-05T00:03:17.610Z,100172.84
2023-03-05T00:08:19.189Z,100170.16
2023-03-05T00:13:20.784Z,100174.41
2023-03-05T00:18:22.533Z,100171.63
2023-03-05T00:23:24.137Z,100172.47
2023-03-05T00:28:25.685Z,100169.59
2023-03-05T00:33:27.757Z,100166.19
2023-03-05T00:38:29.454Z,100160.72
2023-03-05T00:43:31.079Z,100161.44
2023-03-05T00:48:32.653Z,100149.88
2023-03-05T00:53:34.270Z,100139.78
2023-03-05T00:58:35.840Z,100134.47
2023-03-05T01:03:37.484Z,100130.38
2023-03-05T01:08:39.704Z,100128.44
2023-03-05T01:13:41.401Z,100124.94
2023-03-05T01:18:43.041Z,100110.59
2023-03-05T01:23:44.615Z,100115.88
2023-03-05T01:28:46.196Z,100101.31
2023-03-05T01:33:47.812Z,100114.06
2023-03-05T01:38:49.403Z,100101.66
2023-03-05T01:43:52.876Z,100094.53
2023-03-05T01:48:56.074Z,100092.97
2023-03-05T01:53:59.063Z,100090.56
2023-03-05T01:59:03.578Z,100087.53
2023-03-05T02:04:05.786Z,100094.53
2023-03-05T02:09:07.563Z,100093.94
2023-03-05T02:14:10.277Z,100087.44
2023-03-05T02:19:12.709Z,100081.16
2023-03-05T02:24:17.087Z,100076.19
2023-03-05T02:29:20.131Z,100073.53
2023-03-05T02:34:22.971Z,100063.41
2023-03-05T02:39:25.170Z,100064.59
2023-03-05T02:44:27.096Z,100054.84
2023-03-05T02:49:28.846Z,100053.38
2023-03-05T02:54:30.525Z,100046.66
2023-03-05T02:59:32.243Z,100047.25
2023-03-05T03:04:34.356Z,100049.91
2023-03-05T03:09:36.131Z,100043.75
2023-03-05T03:14:41.201Z,100051.47
2023-03-05T03:19:43.333Z,100040.81
2023-03-05T03:24:44.891Z,100042.41
2023-03-05T03:29:46.432Z,100041.91
2023-03-05T03:34:48.274Z,100039.16
2023-03-05T03:39:49.875Z,100036.25
2023-03-05T03:44:51.505Z,100029.75
2023-03-05T03:49:56.232Z,100020.28
2023-03-05T03:55:01.652Z,100023.72
2023-03-05T04:00:06.937Z,100020.22
2023-03-05T04:05:13.611Z,100017.00
2023-03-05T04:10:15.231Z,100013.00
2023-03-05T04:15:16.952Z,100004.94
2023-03-05T04:20:18.637Z,100009.41
2023-03-05T04:25:20.178Z,100002.50
2023-03-05T04:30:24.651Z,99994.28
2023-03-05T04:35:26.542Z,99994.69
2023-03-05T04:40:28.278Z,99991.91
2023-03-05T04:45:29.884Z,99978.69
2023-03-05T04:50:31.436Z,99979.88
2023-03-05T04:55:33.072Z,99970.72
2023-03-05T05:00:34.680Z,99971.78
2023-03-05T05:05:36.655Z,99976.00
2023-03-05T05:10:41.438Z,99982.75
2023-03-05T05:15:43.027Z,99981.44
2023-03-05T05:20:44.655Z,99987.19
2023-03-05T05:25:46.230Z,99978.75
2023-03-05T05:30:47.830Z,99969.25
2023-03-05T05:35:49.929Z,99961.66
2023-03-05T05:40:51.620Z,99958.06
2023-03-05T05:45:53.324Z,99951.13
2023-03-05T05:50:55.048Z,99962.50
2023-03-05T05:55:56.632Z,99969.97
2023-03-05T06:00:58.224Z,99966.59
2023-03-05T06:05:59.849Z,99967.81
2023-03-05T06:11:01.493Z,99961.06
2023-03-05T06:16:07.131Z,99957.22
2023-03-05T06:21:12.862Z,99955.41
2023-03-05T06:26:19.733Z,99959.63
2023-03-05T06:31:25.522Z,99958.78
2023-03-05T06:36:27.611Z,99953.94
2023-03-05T06:41:30.808Z,99956.97
2023-03-05T06:46:34.432Z,99960.44
2023-03-05T06:51:39.452Z,99957.09
2023-03-05T06:56:43.622Z,99953.38
2023-03-05T07:01:45.665Z,99966.03
2023-03-05T07:06:47.377Z,99962.53
2023-03-05T07:11:49.002Z,99968.31
2023-03-05T07:16:50.535Z,99963.22
2023-03-05T07:21:52.203Z,99960.13
2023-03-05T07:26:53.819Z,99957.09
2023-03-05T07:31:56.009Z,99962.41
2023-03-05T07:36:57.733Z,99959.41
2023-03-05T07:41:59.306Z,99958.56
2023-03-05T07:47:06.706Z,99954.06
2023-03-05T07:52:08.913Z,99943.34
2023-03-05T07:57:12.494Z,99949.13
2023-03-05T08:02:14.805Z,99941.06
2023-03-05T08:07:17.091Z,99938.88
2023-03-05T08:12:18.821Z,99941.53
2023-03-05T08:17:20.460Z,99939.38
2023-03-05T08:22:22.073Z,99927.03
2023-03-05T08:27:23.868Z,99922.50
2023-03-05T08:32:25.545Z,99917.66
2023-03-05T08:37:27.122Z,99923.59
2023-03-05T08:42:28.800Z,99916.03
2023-03-05T08:47:30.441Z,99901.38
2023-03-05T08:52:32.047Z,99902.19
2023-03-05T08:57:33.677Z,99903.19
2023-03-05T09:02:35.397Z,99905.53
2023-03-05T09:07:37.934Z,99890.25
2023-03-05T09:12:39.654Z,99891.44
2023-03-05T09:17:42.385Z,99891.09
2023-03-05T09:22:43.969Z,99888.41
2023-03-05T09:27:45.758Z,99888.47
2023-03-05T09:32:47.407Z,99887.69
2023-03-05T09:37:49.241Z,99876.75
2023-03-05T09:42:53.483Z,99874.75
2023-03-05T09:48:13.136Z,99877.13
2023-03-05T09:53:14.680Z,99867.06
2023-03-05T09:58:43.072Z,99868.72
2023-03-05T10:04:16.153Z,99850.41
2023-03-05T10:09:28.417Z,99848.59
2023-03-05T10:14:34.469Z,99838.88
2023-03-05T10:20:02.973Z,99835.94
2023-03-05T10:25:20.888Z,99824.19
2023-03-05T10:30:48.726Z,99826.84
2023-03-05T10:36:21.186Z,99820.09
2023-03-05T10:41:53.138Z,99818.22
2023-03-05T10:46:57.358Z,99796.53
2023-03-05T10:52:06.238Z,99793.84
2023-03-05T10:57:20.143Z,99804.28
2023-03-05T11:02:22.900Z,99794.53
2023-03-05T11:07:24.490Z,99792.53
2023-03-05T11:12:30.757Z,99787.53
2023-03-05T11:17:47.705Z,99791.16
2023-03-05T11:23:11.190Z,99799.06
2023-03-05T11:28:30.744Z,99790.69
2023-03-05T11:33:36.165Z,99770.81
2023-03-05T11:38:56.517Z,99766.34
2023-03-05T11:43:59.321Z,99767.16
2023-03-05T11:49:01.673Z,99758.78
2023-03-05T11:54:11.077Z,99745.22
2023-03-05T11:59:27.228Z,99750.81
2023-03-05T12:04:30.353Z,99740.28
2023-03-05T12:09:41.079Z,99731.34
2023-03-05T12:14:49.235Z,99718.69
2023-03-05T12:20:25.576Z,99715.69
2023-03-05T12:25:35.835Z,99707.81
2023-03-05T12:30:37.356Z,99688.66
2023-03-05T12:35:41.057Z,99688.97
2023-03-05T12:40:43.011Z,99682.09
2023-03-05T12:45:45.413Z,99680.63
2023-03-05T12:50:48.795Z,99676.47
2023-03-05T12:55:57.685Z,99679.22
2023-03-05T13:01:04.274Z,99675.63
2023-03-05T13:06:08.035Z,99668.91
2023-03-05T13:11:17.078Z,99661.22
2023-03-05T13:16:20.771Z,99655.75
2023-03-05T13:21:27.865Z,99652.13
2023-03-05T13:26:29.402Z,99645.00
2023-03-05T13:31:31.104Z,99642.19
2023-03-05T13:36:33.142Z,99640.28
2023-03-05T13:41:34.999Z,99635.06
2023-03-05T13:46:38.713Z,99625.53
2023-03-05T13:51:41.968Z,99614.63
2023-03-05T13:56:56.823Z,99610.97
2023-03-05T14:02:00.521Z,99603.72
2023-03-05T14:07:06.825Z,99589.84
2023-03-05T14:12:30.405Z,99585.25
2023-03-05T14:17:39.411Z,99597.19
2023-03-05T14:22:43.453Z,99625.56
2023-03-05T14:27:47.417Z,99612.34
2023-03-05T14:32:49.799Z,99598.59
2023-03-05T14:37:52.885Z,99592.72
2023-03-05T14:42:58.470Z,99598.75
2023-03-05T14:48:03.553Z,99603.91
2023-03-05T14:53:18.636Z,99599.53
2023-03-05T14:58:21.909Z,99604.03
2023-03-05T15:03:24.494Z,99604.72
2023-03-05T15:08:28.861Z,99593.78
2023-03-05T15:13:31.708Z,99604.06
2023-03-05T15:18:33.425Z,99589.28
2023-03-05T15:23:38.120Z,99583.41
2023-03-05T15:28:39.857Z,99574.28
2023-03-05T15:33:41.847Z,99574.72
2023-03-05T15:38:43.528Z,99567.19
2023-03-05T15:43:45.653Z,99562.53
2023-03-05T15:48:50.056Z,99566.69
2023-03-05T15:53:51.919Z,99571.59
2023-03-05T15:58:53.554Z,99554.84
2023-03-05T16:03:55.334Z,99558.84
2023-03-05T16:09:01.561Z,99557.84
2023-03-05T16:14:04.501Z,99555.19
2023-03-05T16:19:07.627Z,99553.63
2023-03-05T16:24:09.333Z,99549.97
2023-03-05T16:29:11.599Z,99538.03
2023-03-05T16:34:14.205Z,99531.47
2023-03-05T16:39:15.817Z,99528.00
2023-03-05T16:44:17.438Z,99532.78
2023-03-05T16:49:20.313Z,99530.94
2023-03-05T16:54:22.099Z,99529.22
2023-03-05T16:59:24.983Z,99535.28
2023-03-05T17:04:26.608Z,99533.97
2023-03-05T17:09:28.286Z,99532.72
2023-03-05T17:14:29.932Z,99548.66
2023-03-05T17:19:32.054Z,99529.72
2023-03-05T17:24:33.667Z,99539.28
2023-03-05T17:29:35.597Z,99529.53
2023-03-05T17:34:37.272Z,99535.28
2023-03-05T17:39:39.638Z,99540.22
2023-03-05T17:44:42.629Z,99532.19
2023-03-05T17:49:44.264Z,99532.75
2023-03-05T17:54:45.937Z,99540.59
2023-03-05T17:59:48.073Z,99543.94
2023-03-05T18:04:52.045Z,99532.28
2023-03-05T18:09:53.720Z,99535.41
2023-03-05T18:14:55.288Z,99537.16
2023-03-05T18:19:56.960Z,99544.75
2023-03-05T18:24:58.616Z,99537.53
2023-03-05T18:30:00.210Z,99526.63
2023-03-05T18:35:01.789Z,99531.50
2023-03-05T18:40:09.433Z,99533.31
2023-03-05T18:45:14.269Z,99540.97
2023-03-05T18:50:18.505Z,99538.44
2023-03-05T18:55:23.307Z,99543.06
2023-03-05T19:00:30.127Z,99544.34
2023-03-05T19:05:32.196Z,99549.94
2023-03-05T19:10:34.142Z,99539.44
2023-03-05T19:15:39.598Z,99545.19
2023-03-05T19:20:41.281Z,99535.38
2023-03-05T19:25:42.854Z,99533.59
2023-03-05T19:30:44.552Z,99527.25
2023-03-05T19:35:46.331Z,99527.72
2023-03-05T19:40:48.245Z,99532.13
2023-03-05T19:45:49.907Z,99513.41
2023-03-05T19:50:51.631Z,99503.72
2023-03-05T19:55:53.259Z,99501.50
2023-03-05T20:00:54.861Z,99501.41
2023-03-05T20:05:56.468Z,99502.25
2023-03-05T20:10:58.379Z,99488.97
2023-03-05T20:16:00.299Z,99491.94
2023-03-05T20:21:03.367Z,99478.81
2023-03-05T20:26:06.660Z,99473.69
2023-03-05T20:31:08.258Z,99462.97
2023-03-05T20:36:10.017Z,99472.34
2023-03-05T20:41:14.997Z,99462.56
2023-03-05T20:46:16.632Z,99453.47
2023-03-05T20:51:22.665Z,99450.16
2023-03-05T20:56:28.097Z,99451.59
2023-03-05T21:01:30.366Z,99438.22
2023-03-05T21:06:33.248Z,99427.94
2023-03-05T21:11:35.772Z,99430.72
2023-03-05T21:16:37.555Z,99429.50
2023-03-05T21:21:40.397Z,99423.16
2023-03-05T21:26:41.957Z,99419.50
2023-03-05T21:31:43.618Z,99410.03
2023-03-05T21:36:45.293Z,99394.63
2023-03-05T21:41:48.236Z,99400.22
2023-03-05T21:46:51.119Z,99384.66
2023-03-05T21:52:09.003Z,99378.19
2023-03-05T21:57:11.725Z,99378.41
2023-03-05T22:02:15.659Z,99382.16
2023-03-05T22:07:18.318Z,99369.72
2023-03-05T22:12:30.293Z,99366.25
2023-03-05T22:17:31.854Z,99370.44
2023-03-05T22:22:33.501Z,99361.25
2023-03-05T22:27:35.142Z,99356.78
2023-03-05T22:32:37.328Z,99354.84
2023-03-05T22:37:41.200Z,99338.13
2023-03-05T22:42:44.258Z,99336.69
2023-03-05T22:47:48.093Z,99343.00
2023-03-05T22:52:49.923Z,99338.47
2023-03-05T22:57:51.471Z,99338.25
2023-03-05T23:02:53.170Z,99340.47
2023-03-05T23:07:54.808Z,99335.31
2023-03-05T23:12:58.757Z,99332.53
2023-03-05T23:18:01.047Z,99324.84
2023-03-05T23:23:03.967Z,99335.47
2023-03-05T23:28:05.657Z,99324.72
2023-03-05T23:33:18.169Z,99328.34
2023-03-05T23:38:20.230Z,99328.91
2023-03-05T23:43:24.600Z,99324.84
2023-03-05T23:48:27.042Z,99327.19
2023-03-05T23:53:31.081Z,99320.94
2023-03-05T23:58:32.719Z,99318.84
